sensor_id;sensor_type;location;lat;lon;timestamp;temperature;humidity
12604;DHT22;6367;52.508;13.284;2022-12-16T00:00:28;0.80;93.70
12604;DHT22;6367;52.508;13.284;2022-12-16T00:02:53;0.90;93.80
12604;DHT22;6367;52.508;13.284;2022-12-16T00:05:19;1.00;93.50
12604;DHT22;6367;52.508;13.284;2022-12-16T00:07:48;1.50;93.90
12604;DHT22;6367;52.508;13.284;2022-12-16T00:10:14;0.80;93.60
12604;DHT22;6367;52.508;13.284;2022-12-16T00:12:39;0.80;93.90
12604;DHT22;6367;52.508;13.284;2022-12-16T00:15:05;1.20;94.00
12604;DHT22;6367;52.508;13.284;2022-12-16T00:17:31;0.70;93.80
12604;DHT22;6367;52.508;13.284;2022-12-16T00:19:57;1.10;94.00
12604;DHT22;6367;52.508;13.284;2022-12-16T00:22:22;0.70;93.70
12604;DHT22;6367;52.508;13.284;2022-12-16T00:24:48;0.60;93.90
12604;DHT22;6367;52.508;13.284;2022-12-16T00:27:14;0.60;94.10
12604;DHT22;6367;52.508;13.284;2022-12-16T00:29:39;0.70;94.00
12604;DHT22;6367;52.508;13.284;2022-12-16T00:32:05;0.70;93.30
12604;DHT22;6367;52.508;13.284;2022-12-16T00:34:31;1.00;93.40
12604;DHT22;6367;52.508;13.284;2022-12-16T00:36:58;0.50;93.30
12604;DHT22;6367;52.508;13.284;2022-12-16T00:39:23;0.50;93.30
12604;DHT22;6367;52.508;13.284;2022-12-16T00:41:49;0.60;93.20
12604;DHT22;6367;52.508;13.284;2022-12-16T00:44:15;0.60;93.10
12604;DHT22;6367;52.508;13.284;2022-12-16T00:46:41;0.50;93.20
12604;DHT22;6367;52.508;13.284;2022-12-16T00:49:07;0.50;93.40
12604;DHT22;6367;52.508;13.284;2022-12-16T00:51:33;0.50;93.60
12604;DHT22;6367;52.508;13.284;2022-12-16T00:53:58;0.50;93.20
12604;DHT22;6367;52.508;13.284;2022-12-16T00:56:24;0.40;93.30
12604;DHT22;6367;52.508;13.284;2022-12-16T00:58:50;0.40;93.30
12604;DHT22;6367;52.508;13.284;2022-12-16T01:01:16;0.30;93.40
12604;DHT22;6367;52.508;13.284;2022-12-16T01:03:41;0.30;93.30
12604;DHT22;6367;52.508;13.284;2022-12-16T01:06:12;0.30;93.30
12604;DHT22;6367;52.508;13.284;2022-12-16T01:08:38;0.40;93.20
12604;DHT22;6367;52.508;13.284;2022-12-16T01:11:04;0.20;92.90
12604;DHT22;6367;52.508;13.284;2022-12-16T01:13:30;0.20;93.30
12604;DHT22;6367;52.508;13.284;2022-12-16T01:15:59;0.20;93.40
12604;DHT22;6367;52.508;13.284;2022-12-16T01:18:25;0.10;93.50
12604;DHT22;6367;52.508;13.284;2022-12-16T01:20:51;0.20;93.70
12604;DHT22;6367;52.508;13.284;2022-12-16T01:23:17;0.20;93.30
12604;DHT22;6367;52.508;13.284;2022-12-16T01:25:43;0.20;93.30
12604;DHT22;6367;52.508;13.284;2022-12-16T01:28:09;0.20;93.40
12604;DHT22;6367;52.508;13.284;2022-12-16T01:30:35;0.20;93.60
12604;DHT22;6367;52.508;13.284;2022-12-16T01:33:00;0.30;93.60
12604;DHT22;6367;52.508;13.284;2022-12-16T01:35:26;0.30;93.40
12604;DHT22;6367;52.508;13.284;2022-12-16T01:37:52;0.30;93.40
12604;DHT22;6367;52.508;13.284;2022-12-16T01:40:19;0.70;93.70
12604;DHT22;6367;52.508;13.284;2022-12-16T01:42:46;0.30;93.30
12604;DHT22;6367;52.508;13.284;2022-12-16T01:45:31;0.80;93.70
12604;DHT22;6367;52.508;13.284;2022-12-16T01:48:02;0.10;93.50
12604;DHT22;6367;52.508;13.284;2022-12-16T01:50:31;0.50;93.80
12604;DHT22;6367;52.508;13.284;2022-12-16T01:53:00;0.00;93.70
12604;DHT22;6367;52.508;13.284;2022-12-16T01:55:31;0.10;93.90
12604;DHT22;6367;52.508;13.284;2022-12-16T01:58:19;0.10;93.90
12604;DHT22;6367;52.508;13.284;2022-12-16T02:00:47;0.10;94.00
12604;DHT22;6367;52.508;13.284;2022-12-16T02:03:14;0.60;94.30
12604;DHT22;6367;52.508;13.284;2022-12-16T02:05:40;0.20;94.00
12604;DHT22;6367;52.508;13.284;2022-12-16T02:08:15;0.20;93.90
12604;DHT22;6367;52.508;13.284;2022-12-16T02:24:08;0.30;93.90
12604;DHT22;6367;52.508;13.284;2022-12-16T02:41:03;0.30;93.50
12604;DHT22;6367;52.508;13.284;2022-12-16T02:46:04;0.30;93.30
12604;DHT22;6367;52.508;13.284;2022-12-16T02:48:31;0.40;93.30
12604;DHT22;6367;52.508;13.284;2022-12-16T02:50:57;0.20;93.30
12604;DHT22;6367;52.508;13.284;2022-12-16T02:53:23;0.30;93.50
12604;DHT22;6367;52.508;13.284;2022-12-16T02:55:59;0.20;93.30
12604;DHT22;6367;52.508;13.284;2022-12-16T03:01:05;0.20;93.90
12604;DHT22;6367;52.508;13.284;2022-12-16T03:03:42;0.10;93.40
12604;DHT22;6367;52.508;13.284;2022-12-16T03:06:12;0.20;93.40
12604;DHT22;6367;52.508;13.284;2022-12-16T03:08:40;0.20;93.30
12604;DHT22;6367;52.508;13.284;2022-12-16T03:11:07;0.20;93.30
12604;DHT22;6367;52.508;13.284;2022-12-16T03:13:40;0.20;93.20
12604;DHT22;6367;52.508;13.284;2022-12-16T03:16:09;0.30;93.10
12604;DHT22;6367;52.508;13.284;2022-12-16T03:18:39;0.20;93.00
12604;DHT22;6367;52.508;13.284;2022-12-16T03:21:07;0.10;93.00
12604;DHT22;6367;52.508;13.284;2022-12-16T03:23:50;0.00;92.90
12604;DHT22;6367;52.508;13.284;2022-12-16T03:26:33;0.00;92.90
12604;DHT22;6367;52.508;13.284;2022-12-16T03:29:13;-0.20;92.90
12604;DHT22;6367;52.508;13.284;2022-12-16T03:34:30;-0.20;93.20
12604;DHT22;6367;52.508;13.284;2022-12-16T03:37:01;-0.20;93.30
12604;DHT22;6367;52.508;13.284;2022-12-16T03:39:30;-0.20;93.30
12604;DHT22;6367;52.508;13.284;2022-12-16T03:41:58;-0.10;93.40
12604;DHT22;6367;52.508;13.284;2022-12-16T03:44:24;-0.10;93.30
12604;DHT22;6367;52.508;13.284;2022-12-16T03:46:51;-0.30;93.00
12604;DHT22;6367;52.508;13.284;2022-12-16T03:49:17;0.10;93.50
12604;DHT22;6367;52.508;13.284;2022-12-16T03:51:42;0.40;93.90
12604;DHT22;6367;52.508;13.284;2022-12-16T03:54:08;0.00;93.70
12604;DHT22;6367;52.508;13.284;2022-12-16T03:56:33;-0.10;93.70
12604;DHT22;6367;52.508;13.284;2022-12-16T03:58:59;0.30;93.70
12604;DHT22;6367;52.508;13.284;2022-12-16T04:01:25;0.60;93.30
12604;DHT22;6367;52.508;13.284;2022-12-16T04:03:51;-0.20;93.30
12604;DHT22;6367;52.508;13.284;2022-12-16T04:06:16;-0.20;93.50
12604;DHT22;6367;52.508;13.284;2022-12-16T04:08:44;-0.10;93.50
12604;DHT22;6367;52.508;13.284;2022-12-16T04:11:11;0.30;94.00
12604;DHT22;6367;52.508;13.284;2022-12-16T04:13:55;-0.10;93.30
12604;DHT22;6367;52.508;13.284;2022-12-16T04:16:39;-0.10;93.40
12604;DHT22;6367;52.508;13.284;2022-12-16T04:19:27;-0.10;93.50
12604;DHT22;6367;52.508;13.284;2022-12-16T04:22:15;0.00;93.50
12604;DHT22;6367;52.508;13.284;2022-12-16T04:25:05;-0.10;93.40
12604;DHT22;6367;52.508;13.284;2022-12-16T04:27:31;0.10;93.20
12604;DHT22;6367;52.508;13.284;2022-12-16T04:29:57;-0.10;93.00
12604;DHT22;6367;52.508;13.284;2022-12-16T04:32:42;0.00;93.10
12604;DHT22;6367;52.508;13.284;2022-12-16T04:35:26;0.00;93.30
12604;DHT22;6367;52.508;13.284;2022-12-16T04:38:10;0.00;93.20
12604;DHT22;6367;52.508;13.284;2022-12-16T04:40:54;-0.10;93.30
12604;DHT22;6367;52.508;13.284;2022-12-16T04:43:38;0.40;93.70
12604;DHT22;6367;52.508;13.284;2022-12-16T04:46:22;0.40;93.80
12604;DHT22;6367;52.508;13.284;2022-12-16T04:49:06;0.50;93.70
12604;DHT22;6367;52.508;13.284;2022-12-16T04:51:50;-0.20;93.30
12604;DHT22;6367;52.508;13.284;2022-12-16T04:54:34;-0.10;93.60
12604;DHT22;6367;52.508;13.284;2022-12-16T04:57:18;-0.20;93.50
12604;DHT22;6367;52.508;13.284;2022-12-16T05:00:03;-0.20;93.60
12604;DHT22;6367;52.508;13.284;2022-12-16T05:02:49;-0.10;93.60
12604;DHT22;6367;52.508;13.284;2022-12-16T05:05:33;0.10;93.60
12604;DHT22;6367;52.508;13.284;2022-12-16T05:08:18;0.20;93.60
12604;DHT22;6367;52.508;13.284;2022-12-16T05:11:02;0.30;93.50
12604;DHT22;6367;52.508;13.284;2022-12-16T05:13:47;0.30;93.40
12604;DHT22;6367;52.508;13.284;2022-12-16T05:16:31;0.40;93.20
12604;DHT22;6367;52.508;13.284;2022-12-16T05:19:15;0.40;93.10
12604;DHT22;6367;52.508;13.284;2022-12-16T05:21:59;0.60;92.90
12604;DHT22;6367;52.508;13.284;2022-12-16T05:24:43;0.30;92.90
12604;DHT22;6367;52.508;13.284;2022-12-16T05:27:27;0.20;93.00
12604;DHT22;6367;52.508;13.284;2022-12-16T05:30:11;0.30;93.10
12604;DHT22;6367;52.508;13.284;2022-12-16T05:32:56;0.40;93.00
12604;DHT22;6367;52.508;13.284;2022-12-16T05:35:40;0.30;93.00
12604;DHT22;6367;52.508;13.284;2022-12-16T05:38:24;0.20;93.00
12604;DHT22;6367;52.508;13.284;2022-12-16T05:41:08;0.30;93.00
12604;DHT22;6367;52.508;13.284;2022-12-16T05:43:52;0.40;92.80
12604;DHT22;6367;52.508;13.284;2022-12-16T05:46:36;0.60;93.30
12604;DHT22;6367;52.508;13.284;2022-12-16T05:49:20;0.20;93.00
12604;DHT22;6367;52.508;13.284;2022-12-16T05:52:04;0.30;93.00
12604;DHT22;6367;52.508;13.284;2022-12-16T05:54:48;0.30;93.00
12604;DHT22;6367;52.508;13.284;2022-12-16T05:57:32;0.30;92.80
12604;DHT22;6367;52.508;13.284;2022-12-16T06:00:17;0.80;93.20
12604;DHT22;6367;52.508;13.284;2022-12-16T06:03:01;0.30;92.90
12604;DHT22;6367;52.508;13.284;2022-12-16T06:05:45;0.70;93.20
12604;DHT22;6367;52.508;13.284;2022-12-16T06:08:29;0.30;93.00
12604;DHT22;6367;52.508;13.284;2022-12-16T06:11:13;0.60;93.20
12604;DHT22;6367;52.508;13.284;2022-12-16T06:13:57;0.30;93.20
12604;DHT22;6367;52.508;13.284;2022-12-16T06:16:41;0.30;93.30
12604;DHT22;6367;52.508;13.284;2022-12-16T06:19:25;0.40;93.30
12604;DHT22;6367;52.508;13.284;2022-12-16T06:22:09;0.40;93.10
12604;DHT22;6367;52.508;13.284;2022-12-16T06:24:53;0.40;93.20
12604;DHT22;6367;52.508;13.284;2022-12-16T06:27:37;0.50;93.10
12604;DHT22;6367;52.508;13.284;2022-12-16T06:30:21;0.90;92.90
12604;DHT22;6367;52.508;13.284;2022-12-16T06:33:06;1.30;92.80
12604;DHT22;6367;52.508;13.284;2022-12-16T06:35:50;0.60;92.60
12604;DHT22;6367;52.508;13.284;2022-12-16T06:38:34;0.60;92.70
12604;DHT22;6367;52.508;13.284;2022-12-16T06:41:18;0.60;92.80
12604;DHT22;6367;52.508;13.284;2022-12-16T06:44:02;0.70;92.70
12604;DHT22;6367;52.508;13.284;2022-12-16T06:46:46;0.70;92.50
12604;DHT22;6367;52.508;13.284;2022-12-16T06:49:30;0.70;92.60
12604;DHT22;6367;52.508;13.284;2022-12-16T06:52:14;1.20;92.90
12604;DHT22;6367;52.508;13.284;2022-12-16T06:54:58;0.50;92.60
12604;DHT22;6367;52.508;13.284;2022-12-16T06:57:42;0.50;92.60
12604;DHT22;6367;52.508;13.284;2022-12-16T07:00:26;0.50;92.50
12604;DHT22;6367;52.508;13.284;2022-12-16T07:03:10;0.50;92.10
12604;DHT22;6367;52.508;13.284;2022-12-16T07:05:54;0.40;92.10
12604;DHT22;6367;52.508;13.284;2022-12-16T07:08:38;0.40;92.00
12604;DHT22;6367;52.508;13.284;2022-12-16T07:11:22;0.60;91.80
12604;DHT22;6367;52.508;13.284;2022-12-16T07:14:06;0.50;91.60
12604;DHT22;6367;52.508;13.284;2022-12-16T07:16:50;0.30;91.70
12604;DHT22;6367;52.508;13.284;2022-12-16T07:19:34;0.30;91.80
12604;DHT22;6367;52.508;13.284;2022-12-16T07:22:18;0.20;91.90
12604;DHT22;6367;52.508;13.284;2022-12-16T07:25:03;0.10;91.90
12604;DHT22;6367;52.508;13.284;2022-12-16T07:27:47;0.10;91.90
12604;DHT22;6367;52.508;13.284;2022-12-16T07:30:31;0.10;91.90
12604;DHT22;6367;52.508;13.284;2022-12-16T07:33:15;0.60;92.00
12604;DHT22;6367;52.508;13.284;2022-12-16T07:35:59;0.10;91.80
12604;DHT22;6367;52.508;13.284;2022-12-16T07:38:44;0.10;91.70
12604;DHT22;6367;52.508;13.284;2022-12-16T07:41:28;0.10;91.70
12604;DHT22;6367;52.508;13.284;2022-12-16T07:44:12;0.40;91.90
12604;DHT22;6367;52.508;13.284;2022-12-16T07:46:56;0.00;91.70
12604;DHT22;6367;52.508;13.284;2022-12-16T07:49:40;0.10;91.80
12604;DHT22;6367;52.508;13.284;2022-12-16T07:52:24;0.10;92.00
12604;DHT22;6367;52.508;13.284;2022-12-16T07:55:08;0.10;91.80
12604;DHT22;6367;52.508;13.284;2022-12-16T07:57:52;0.10;91.90
12604;DHT22;6367;52.508;13.284;2022-12-16T08:00:36;0.40;92.00
12604;DHT22;6367;52.508;13.284;2022-12-16T08:03:20;0.00;91.90
12604;DHT22;6367;52.508;13.284;2022-12-16T08:06:05;0.10;91.90
12604;DHT22;6367;52.508;13.284;2022-12-16T08:08:49;0.10;91.90
12604;DHT22;6367;52.508;13.284;2022-12-16T08:11:33;0.00;91.90
12604;DHT22;6367;52.508;13.284;2022-12-16T08:14:17;0.00;91.90
12604;DHT22;6367;52.508;13.284;2022-12-16T08:17:01;0.00;91.90
12604;DHT22;6367;52.508;13.284;2022-12-16T08:19:45;0.40;91.90
12604;DHT22;6367;52.508;13.284;2022-12-16T08:22:29;0.00;91.60
12604;DHT22;6367;52.508;13.284;2022-12-16T08:25:13;0.00;91.70
12604;DHT22;6367;52.508;13.284;2022-12-16T08:27:57;0.10;91.70
12604;DHT22;6367;52.508;13.284;2022-12-16T08:30:41;0.10;91.70
12604;DHT22;6367;52.508;13.284;2022-12-16T08:33:25;0.00;91.80
12604;DHT22;6367;52.508;13.284;2022-12-16T08:36:09;0.10;91.90
12604;DHT22;6367;52.508;13.284;2022-12-16T08:38:53;0.10;91.90
12604;DHT22;6367;52.508;13.284;2022-12-16T08:41:38;0.10;92.40
12604;DHT22;6367;52.508;13.284;2022-12-16T08:44:22;0.20;93.20
12604;DHT22;6367;52.508;13.284;2022-12-16T08:47:06;0.20;92.70
12604;DHT22;6367;52.508;13.284;2022-12-16T08:49:50;0.70;92.70
12604;DHT22;6367;52.508;13.284;2022-12-16T08:52:34;0.30;92.50
12604;DHT22;6367;52.508;13.284;2022-12-16T08:55:18;0.40;92.40
12604;DHT22;6367;52.508;13.284;2022-12-16T08:58:02;0.50;92.40
12604;DHT22;6367;52.508;13.284;2022-12-16T09:00:46;0.60;92.40
12604;DHT22;6367;52.508;13.284;2022-12-16T09:03:30;0.70;92.80
12604;DHT22;6367;52.508;13.284;2022-12-16T09:06:14;0.80;92.20
12604;DHT22;6367;52.508;13.284;2022-12-16T09:08:58;0.90;92.00
12604;DHT22;6367;52.508;13.284;2022-12-16T09:11:42;0.90;92.00
12604;DHT22;6367;52.508;13.284;2022-12-16T09:14:26;1.00;92.00
12604;DHT22;6367;52.508;13.284;2022-12-16T09:17:10;1.10;91.90
12604;DHT22;6367;52.508;13.284;2022-12-16T09:19:55;1.10;92.00
12604;DHT22;6367;52.508;13.284;2022-12-16T09:22:39;1.30;92.00
12604;DHT22;6367;52.508;13.284;2022-12-16T09:25:23;1.10;91.90
12604;DHT22;6367;52.508;13.284;2022-12-16T09:28:07;1.10;91.90
12604;DHT22;6367;52.508;13.284;2022-12-16T09:30:51;1.20;92.00
12604;DHT22;6367;52.508;13.284;2022-12-16T09:33:35;1.20;91.90
12604;DHT22;6367;52.508;13.284;2022-12-16T09:36:19;1.20;91.90
12604;DHT22;6367;52.508;13.284;2022-12-16T09:39:03;1.20;91.90
12604;DHT22;6367;52.508;13.284;2022-12-16T09:51:12;1.40;92.00
12604;DHT22;6367;52.508;13.284;2022-12-16T09:53:57;1.40;92.10
12604;DHT22;6367;52.508;13.284;2022-12-16T09:56:43;1.40;92.10
12604;DHT22;6367;52.508;13.284;2022-12-16T09:59:33;1.50;92.20
12604;DHT22;6367;52.508;13.284;2022-12-16T10:02:19;1.50;92.10
12604;DHT22;6367;52.508;13.284;2022-12-16T10:05:10;1.60;92.10
12604;DHT22;6367;52.508;13.284;2022-12-16T10:08:19;1.60;92.10
12604;DHT22;6367;52.508;13.284;2022-12-16T10:11:21;1.60;92.20
12604;DHT22;6367;52.508;13.284;2022-12-16T10:14:38;1.70;92.10
12604;DHT22;6367;52.508;13.284;2022-12-16T10:17:24;1.80;92.20
12604;DHT22;6367;52.508;13.284;2022-12-16T10:23:40;1.90;92.20
12604;DHT22;6367;52.508;13.284;2022-12-16T10:27:05;1.90;92.40
12604;DHT22;6367;52.508;13.284;2022-12-16T10:29:50;2.00;92.40
12604;DHT22;6367;52.508;13.284;2022-12-16T10:32:47;2.10;92.40
12604;DHT22;6367;52.508;13.284;2022-12-16T10:35:50;2.10;92.30
12604;DHT22;6367;52.508;13.284;2022-12-16T10:38:40;2.60;92.50
12604;DHT22;6367;52.508;13.284;2022-12-16T10:41:31;2.30;92.40
12604;DHT22;6367;52.508;13.284;2022-12-16T10:47:06;2.40;92.20
12604;DHT22;6367;52.508;13.284;2022-12-16T10:49:53;2.50;91.90
12604;DHT22;6367;52.508;13.284;2022-12-16T10:52:43;2.60;92.00
12604;DHT22;6367;52.508;13.284;2022-12-16T10:55:45;2.50;92.00
12604;DHT22;6367;52.508;13.284;2022-12-16T10:58:44;2.70;92.00
12604;DHT22;6367;52.508;13.284;2022-12-16T11:01:55;2.50;92.00
12604;DHT22;6367;52.508;13.284;2022-12-16T11:04:41;2.50;92.00
12604;DHT22;6367;52.508;13.284;2022-12-16T11:10:39;2.60;92.00
12604;DHT22;6367;52.508;13.284;2022-12-16T11:13:28;2.70;91.90
12604;DHT22;6367;52.508;13.284;2022-12-16T11:16:14;2.60;91.90
12604;DHT22;6367;52.508;13.284;2022-12-16T11:18:59;2.50;92.00
12604;DHT22;6367;52.508;13.284;2022-12-16T11:21:44;3.10;92.30
12604;DHT22;6367;52.508;13.284;2022-12-16T11:24:29;2.60;92.10
12604;DHT22;6367;52.508;13.284;2022-12-16T11:27:24;2.60;92.10
12604;DHT22;6367;52.508;13.284;2022-12-16T11:30:22;2.60;92.00
12604;DHT22;6367;52.508;13.284;2022-12-16T11:33:22;2.60;92.00
12604;DHT22;6367;52.508;13.284;2022-12-16T11:36:17;2.70;92.10
12604;DHT22;6367;52.508;13.284;2022-12-16T11:39:03;2.70;92.20
12604;DHT22;6367;52.508;13.284;2022-12-16T11:41:51;2.90;92.30
12604;DHT22;6367;52.508;13.284;2022-12-16T11:44:40;2.80;92.20
12604;DHT22;6367;52.508;13.284;2022-12-16T11:47:34;2.80;92.60
12604;DHT22;6367;52.508;13.284;2022-12-16T11:50:20;2.90;92.30
12604;DHT22;6367;52.508;13.284;2022-12-16T11:56:01;3.00;92.30
12604;DHT22;6367;52.508;13.284;2022-12-16T11:58:52;3.10;92.40
12604;DHT22;6367;52.508;13.284;2022-12-16T12:01:52;3.00;92.30
12604;DHT22;6367;52.508;13.284;2022-12-16T12:04:38;3.00;92.40
12604;DHT22;6367;52.508;13.284;2022-12-16T12:07:49;3.10;92.50
12604;DHT22;6367;52.508;13.284;2022-12-16T12:11:07;3.10;92.40
12604;DHT22;6367;52.508;13.284;2022-12-16T12:17:23;3.20;92.50
12604;DHT22;6367;52.508;13.284;2022-12-16T12:26:31;3.20;92.40
12604;DHT22;6367;52.508;13.284;2022-12-16T12:29:21;3.20;92.30
12604;DHT22;6367;52.508;13.284;2022-12-16T12:32:27;3.20;92.30
12604;DHT22;6367;52.508;13.284;2022-12-16T12:38:56;3.10;92.30
12604;DHT22;6367;52.508;13.284;2022-12-16T12:57:43;3.10;92.40
12604;DHT22;6367;52.508;13.284;2022-12-16T13:00:31;3.10;92.40
12604;DHT22;6367;52.508;13.284;2022-12-16T13:03:33;3.20;92.50
12604;DHT22;6367;52.508;13.284;2022-12-16T13:06:19;3.20;92.40
12604;DHT22;6367;52.508;13.284;2022-12-16T13:09:31;3.20;92.40
12604;DHT22;6367;52.508;13.284;2022-12-16T13:20:42;3.20;92.60
12604;DHT22;6367;52.508;13.284;2022-12-16T13:23:30;3.20;92.60
12604;DHT22;6367;52.508;13.284;2022-12-16T13:26:26;3.20;92.70
12604;DHT22;6367;52.508;13.284;2022-12-16T13:32:23;3.20;92.70
12604;DHT22;6367;52.508;13.284;2022-12-16T13:38:02;3.20;92.60
12604;DHT22;6367;52.508;13.284;2022-12-16T13:46:45;3.10;92.70
12604;DHT22;6367;52.508;13.284;2022-12-16T13:52:47;3.20;92.70
12604;DHT22;6367;52.508;13.284;2022-12-16T14:04:44;3.10;92.70
12604;DHT22;6367;52.508;13.284;2022-12-16T14:07:32;3.00;92.70
12604;DHT22;6367;52.508;13.284;2022-12-16T14:10:29;3.10;92.80
12604;DHT22;6367;52.508;13.284;2022-12-16T14:13:39;3.10;92.80
12604;DHT22;6367;52.508;13.284;2022-12-16T14:16:54;3.10;92.80
12604;DHT22;6367;52.508;13.284;2022-12-16T14:23:25;3.00;92.80
12604;DHT22;6367;52.508;13.284;2022-12-16T14:26:12;3.00;92.80
12604;DHT22;6367;52.508;13.284;2022-12-16T14:28:57;3.60;93.10
12604;DHT22;6367;52.508;13.284;2022-12-16T14:31:52;3.20;93.00
12604;DHT22;6367;52.508;13.284;2022-12-16T14:34:37;3.00;93.00
12604;DHT22;6367;52.508;13.284;2022-12-16T14:37:37;3.00;92.90
12604;DHT22;6367;52.508;13.284;2022-12-16T14:40:27;3.00;92.90
12604;DHT22;6367;52.508;13.284;2022-12-16T14:43:19;2.90;92.90
12604;DHT22;6367;52.508;13.284;2022-12-16T14:46:03;3.00;93.00
12604;DHT22;6367;52.508;13.284;2022-12-16T14:48:48;2.80;93.00
12604;DHT22;6367;52.508;13.284;2022-12-16T14:51:37;3.00;93.20
12604;DHT22;6367;52.508;13.284;2022-12-16T14:54:38;3.00;93.20
12604;DHT22;6367;52.508;13.284;2022-12-16T14:57:27;2.90;93.20
12604;DHT22;6367;52.508;13.284;2022-12-16T15:00:20;3.30;93.40
12604;DHT22;6367;52.508;13.284;2022-12-16T15:06:33;2.90;93.20
12604;DHT22;6367;52.508;13.284;2022-12-16T15:09:27;2.80;93.20
12604;DHT22;6367;52.508;13.284;2022-12-16T15:12:15;2.80;93.30
12604;DHT22;6367;52.508;13.284;2022-12-16T15:15:04;2.90;93.30
12604;DHT22;6367;52.508;13.284;2022-12-16T15:17:54;2.80;93.20
12604;DHT22;6367;52.508;13.284;2022-12-16T15:20:53;3.50;93.60
12604;DHT22;6367;52.508;13.284;2022-12-16T15:23:42;2.80;93.30
12604;DHT22;6367;52.508;13.284;2022-12-16T15:26:30;3.20;93.50
12604;DHT22;6367;52.508;13.284;2022-12-16T15:29:36;2.80;93.30
12604;DHT22;6367;52.508;13.284;2022-12-16T15:32:33;2.80;93.30
12604;DHT22;6367;52.508;13.284;2022-12-16T15:35:35;2.80;93.30
12604;DHT22;6367;52.508;13.284;2022-12-16T15:38:27;2.80;93.40
12604;DHT22;6367;52.508;13.284;2022-12-16T15:41:32;2.80;93.40
12604;DHT22;6367;52.508;13.284;2022-12-16T15:44:25;3.00;93.30
12604;DHT22;6367;52.508;13.284;2022-12-16T15:50:12;2.60;93.40
12604;DHT22;6367;52.508;13.284;2022-12-16T15:56:19;2.60;93.50
12604;DHT22;6367;52.508;13.284;2022-12-16T15:59:14;3.00;93.60
12604;DHT22;6367;52.508;13.284;2022-12-16T16:02:05;2.70;93.40
12604;DHT22;6367;52.508;13.284;2022-12-16T16:04:52;2.60;93.40
12604;DHT22;6367;52.508;13.284;2022-12-16T16:07:36;2.60;93.40
12604;DHT22;6367;52.508;13.284;2022-12-16T16:10:23;2.60;93.50
12604;DHT22;6367;52.508;13.284;2022-12-16T16:13:09;2.60;93.50
12604;DHT22;6367;52.508;13.284;2022-12-16T16:15:53;2.60;93.50
12604;DHT22;6367;52.508;13.284;2022-12-16T16:18:39;2.20;93.40
12604;DHT22;6367;52.508;13.284;2022-12-16T16:21:23;2.60;93.50
12604;DHT22;6367;52.508;13.284;2022-12-16T16:24:08;2.60;93.50
12604;DHT22;6367;52.508;13.284;2022-12-16T16:26:58;2.60;93.60
12604;DHT22;6367;52.508;13.284;2022-12-16T16:29:43;2.60;93.60
12604;DHT22;6367;52.508;13.284;2022-12-16T16:32:27;2.60;93.60
12604;DHT22;6367;52.508;13.284;2022-12-16T16:35:11;2.50;93.60
12604;DHT22;6367;52.508;13.284;2022-12-16T16:37:56;2.60;93.60
12604;DHT22;6367;52.508;13.284;2022-12-16T16:40:41;2.60;93.60
12604;DHT22;6367;52.508;13.284;2022-12-16T16:43:26;2.60;93.60
12604;DHT22;6367;52.508;13.284;2022-12-16T16:46:32;2.30;93.50
12604;DHT22;6367;52.508;13.284;2022-12-16T16:49:30;2.60;93.60
12604;DHT22;6367;52.508;13.284;2022-12-16T16:52:21;2.60;93.60
12604;DHT22;6367;52.508;13.284;2022-12-16T16:55:06;2.60;93.60
12604;DHT22;6367;52.508;13.284;2022-12-16T16:57:50;2.60;93.60
12604;DHT22;6367;52.508;13.284;2022-12-16T17:00:35;2.60;93.60
12604;DHT22;6367;52.508;13.284;2022-12-16T17:03:19;2.60;93.70
12604;DHT22;6367;52.508;13.284;2022-12-16T17:06:04;3.20;94.00
12604;DHT22;6367;52.508;13.284;2022-12-16T17:08:48;2.60;93.70
12604;DHT22;6367;52.508;13.284;2022-12-16T17:11:32;2.60;93.70
12604;DHT22;6367;52.508;13.284;2022-12-16T17:14:18;2.60;93.70
12604;DHT22;6367;52.508;13.284;2022-12-16T17:17:04;2.70;93.60
12604;DHT22;6367;52.508;13.284;2022-12-16T17:19:48;2.70;93.50
12604;DHT22;6367;52.508;13.284;2022-12-16T17:22:32;2.70;93.60
12604;DHT22;6367;52.508;13.284;2022-12-16T17:25:17;2.70;93.80
12604;DHT22;6367;52.508;13.284;2022-12-16T17:28:02;2.70;93.60
12604;DHT22;6367;52.508;13.284;2022-12-16T17:30:46;3.20;93.90
12604;DHT22;6367;52.508;13.284;2022-12-16T17:33:30;2.60;93.60
12604;DHT22;6367;52.508;13.284;2022-12-16T17:36:15;2.60;93.70
12604;DHT22;6367;52.508;13.284;2022-12-16T17:39:00;2.50;93.80
12604;DHT22;6367;52.508;13.284;2022-12-16T17:41:45;3.10;94.00
12604;DHT22;6367;52.508;13.284;2022-12-16T17:44:28;2.60;93.80
12604;DHT22;6367;52.508;13.284;2022-12-16T17:47:13;3.10;94.00
12604;DHT22;6367;52.508;13.284;2022-12-16T17:49:57;2.50;93.80
12604;DHT22;6367;52.508;13.284;2022-12-16T17:52:41;2.50;93.90
12604;DHT22;6367;52.508;13.284;2022-12-16T17:55:25;2.50;93.80
12604;DHT22;6367;52.508;13.284;2022-12-16T17:58:09;2.90;94.00
12604;DHT22;6367;52.508;13.284;2022-12-16T18:00:59;2.50;93.80
12604;DHT22;6367;52.508;13.284;2022-12-16T18:03:43;2.70;94.00
12604;DHT22;6367;52.508;13.284;2022-12-16T18:06:27;2.50;94.00
12604;DHT22;6367;52.508;13.284;2022-12-16T18:09:16;2.50;94.10
12604;DHT22;6367;52.508;13.284;2022-12-16T18:12:00;2.50;94.10
12604;DHT22;6367;52.508;13.284;2022-12-16T18:14:45;2.60;94.10
12604;DHT22;6367;52.508;13.284;2022-12-16T18:17:29;2.70;94.10
12604;DHT22;6367;52.508;13.284;2022-12-16T18:20:13;3.00;94.30
12604;DHT22;6367;52.508;13.284;2022-12-16T18:22:57;2.50;94.20
12604;DHT22;6367;52.508;13.284;2022-12-16T18:25:41;2.50;94.30
12604;DHT22;6367;52.508;13.284;2022-12-16T18:28:25;2.50;94.30
12604;DHT22;6367;52.508;13.284;2022-12-16T18:31:09;2.50;94.40
12604;DHT22;6367;52.508;13.284;2022-12-16T18:33:55;3.10;94.60
12604;DHT22;6367;52.508;13.284;2022-12-16T18:36:39;2.60;94.50
12604;DHT22;6367;52.508;13.284;2022-12-16T18:39:23;2.60;94.50
12604;DHT22;6367;52.508;13.284;2022-12-16T18:42:07;2.70;94.80
12604;DHT22;6367;52.508;13.284;2022-12-16T18:44:52;2.60;94.50
12604;DHT22;6367;52.508;13.284;2022-12-16T18:47:36;3.20;94.80
12604;DHT22;6367;52.508;13.284;2022-12-16T18:50:20;2.60;94.50
12604;DHT22;6367;52.508;13.284;2022-12-16T18:53:05;3.10;94.80
12604;DHT22;6367;52.508;13.284;2022-12-16T18:56:02;3.00;94.80
12604;DHT22;6367;52.508;13.284;2022-12-16T18:58:46;2.90;94.90
12604;DHT22;6367;52.508;13.284;2022-12-16T19:01:30;2.50;94.70
12604;DHT22;6367;52.508;13.284;2022-12-16T19:04:14;2.60;94.80
12604;DHT22;6367;52.508;13.284;2022-12-16T19:06:58;2.60;94.80
12604;DHT22;6367;52.508;13.284;2022-12-16T19:09:42;3.00;95.00
12604;DHT22;6367;52.508;13.284;2022-12-16T19:12:27;2.50;94.80
12604;DHT22;6367;52.508;13.284;2022-12-16T19:15:11;2.60;94.90
12604;DHT22;6367;52.508;13.284;2022-12-16T19:17:55;2.60;94.90
12604;DHT22;6367;52.508;13.284;2022-12-16T19:20:39;2.60;95.00
12604;DHT22;6367;52.508;13.284;2022-12-16T19:23:23;2.60;95.00
12604;DHT22;6367;52.508;13.284;2022-12-16T19:26:07;2.60;95.00
12604;DHT22;6367;52.508;13.284;2022-12-16T19:28:51;2.60;95.00
12604;DHT22;6367;52.508;13.284;2022-12-16T19:31:35;2.50;95.00
12604;DHT22;6367;52.508;13.284;2022-12-16T19:34:19;2.60;95.10
12604;DHT22;6367;52.508;13.284;2022-12-16T19:37:04;2.60;95.10